Impacts TAF Board INFO
FOR SITUATIONAL AWARENESS. NOT TO BE USED FOR FLIGHT PLANNING PURPOSES.
IDs:

KEWR - Newark Intl, NJ, US

Issued at 1445 UTC 18 Nov 2017
Updated at 1548 UTC 18 Nov 2017
Potential Impact None Slight Moderate High
Time<<19/16Z 19/17Z 19/18Z 19/19Z 19/20Z 19/21Z 19/22Z 19/23Z 20/00Z 20/01Z 20/02Z 20/03Z 20/04Z
Type PRVL PRVL
VIS >6 >6
CIG 30 40
Cover BKN BKN
FltCat MVFR VFR
WX -- --
WDir 290 290
WSpd 28 29
WGst 37 38

Raw TAF
KEWR 181445Z 1815/1918 VRB05KT P6SM SCT150 BKN200
  FM181630 19010KT P6SM SCT100 BKN150
  FM181800 20012G18KT P6SM VCSH SCT050 BKN100
  FM182300 21012G18KT 6SM -SHRA BR SCT015 BKN025 OVC050
  FM190700 21012G18KT 3SM SHRA BR SCT007 BKN015 OVC035
  FM191300 24026G35KT 5SM -SHRA BR SCT008 BKN020
  FM191500 29028G37KT P6SM BKN030
  FM191700 29029G38KT P6SM BKN040


METAR Board
Radar Display
Forecast Discussion

FOR SITUATIONAL AWARENESS. NOT TO BE USED FOR FLIGHT PLANNING PURPOSES.